Warrensville, NC

10:00 PM EDT on August 27, 2015 (GMT -0400)
Cameron Ridge Road | | Change Station
CLOSE
Current Station
Personal Weather Station
Location: Warrensville, NC
Elevation: 3337 ft
Nearby Weather Stations

Elev 3337 ft 36.45 °N, 81.53 °W | Updated 21 minutes ago

Overcast
Overcast
63.4 °F
Feels Like 63.4 °F
N
0.9
Wind Variable Wind from SSE
Gusts 1.1 mph

Today
High -- | Low -- °F
--% Chance of Precip.
Yesterday
High -- | Low -- °F
Precip. -- in
6:53 AM 8:01 PM
Waxing Gibbous, 96% visible
Pressure 30.22 in
Visibility 7.0 miles
Clouds Overcast 7500 ft
Dew Point 58 °F
Humidity 84%
Rainfall 0.00 in
Snow Depth Not available.
UV 0 out of 12
Pollen 8.10 out of 12
Air Quality Not available.
Flu Activity Not available.
METAR KGEV 280155Z AUTO 00000KT 7SM OVC075 18/13 A3022 RMK AO2 T01830129
Pressure 30.22 in
Visibility 7.0 miles
Clouds Overcast 7500 ft
Dew Point 58 °F
Humidity 84%
Rainfall 0.00 in
Snow Depth Not available.
UV 0 out of 12
Pollen 8.10 out of 12
Air Quality Not available.
Flu Activity Not available.
METAR KGEV 280155Z AUTO 00000KT 7SM OVC075 18/13 A3022 RMK AO2 T01830129

10-Day Weather Forecast

×

Almanac

Astronomy

Aug. 27, 2015 Rise Set
Actual Time
Civil Twilight
Nautical Twilight
Astronomical Twilight
Moon
Length of Visible Light
Length of Day
Tomorrow will be .
, % of the Moon is Illuminated

Today's Extremes

State Highs State Lows

Community

WunderPhotos

Upload Photos

1,850,301 photos uploaded!

WunderBlogs® & News

Nearby

Air Quality

  Air Quality AQ Index Pollutant
Not available.

Snow Depth

Station Depth Elevation

Earthquake Activity

City Distance Mag. Time & Date
Minimum magnitude displayed is 2.5.

Coastal Water Temperatures

Place Temperature

Stations

Nearby Weather Stations

Station Location Temp. Windchill Dew Point Humidity Wind Precip. Elev Updated Type